Kivalina, AK

09:26 AKDT le 25 octobre 2014 (GMT -0800)
RAWS TAHINICHOK AK US | Change Station
CLOSE
Current Station
Stations météorologiques personnelles
Location: Kivalina, AK
Altitude: 965 ft
Stations météo à proximité

Alt. 965 ft 67.55 °N, 163.57 °W | Updated 47 minutes ago

Overcast
Couvert
25 ° F
Paraît 15 ° F
N
10
Vent Variable Vent de ENE
Gusts 12.0 mph

Aujourd'hui
Haut(e) -- | Bas -- ° F
--% Risque de précip.
Hier
Haut(e) -- | Bas -- ° F
Precip. -- pouce
10:36 AM 6:40 PM
Lune montante, 4% visible
Pression 29.63 pouce
Visibilité 10.0 Miles terrestres
Nuages Couvert 2000 ft
Refroidissement éolien 15 ° F
Point de rosée 25 ° F
Humidité 100%
Précipitations 0.00 pouce
Profondeur de la couche neigeuse Non disponible.
UV 0 sur 12
Pollen Non disponible.
Qualité de l'air Non disponible.
Flu Activity Local Activity
METAR PAWN 251716Z AUTO 04006KT 10SM OVC020 M03/M06 A2963 RMK AO1

More Conditions Fewer Conditions

Pression 29.63 pouce
Visibilité 10.0 Miles terrestres
Nuages Couvert 2000 ft
Refroidissement éolien 15 ° F
Point de rosée 25 ° F
Humidité 100%
Précipitations 0.00 pouce
Profondeur de la couche neigeuse Non disponible.
UV 0 sur 12
Pollen Non disponible.
Qualité de l'air Non disponible.
Flu Activity Local Activity
METAR PAWN 251716Z AUTO 04006KT 10SM OVC020 M03/M06 A2963 RMK AO1

More Conditions Fewer Conditions

10-Day Weather Forecast

Almanac

Astronomie

Oct. 25, 2014 Lever Coucher
Temps réel 10:36 AKDT 18:40 AKDT
Crépuscule civil 09:35 AKDT 19:40 AKDT
Crépuscule nautique 08:31 AKDT 20:44 AKDT
Crépuscule astronomique 07:27 AKDT 21:47 AKDT
Lune 13:16 AKDT 19:19 AKDT
Durée de lumière visible 10h 04m
Longueur du jour
8h 04m
Tomorrow will be 8m 0s shorter.
Lune montante, 4% of the Moon is Illuminated
Aujourd'hui
Lune montante
Oct 30
Premier quartier
Nov 6
Pleine lune
Nov 14
Dernier quartier
Nov 22
Nouveau

Extrêmes aujourd'hui

State Highs State Lows

Community

WunderPhotos

Upload Photos

1,764,918 Photos téléchargées !

Nearby

Qualité de l'air

Not available.

Épaisseur de neige

Station Depth Altitude
Rocky Point 3 in 500 ft
Gobblers Knob 2 in 2030 ft
Coldfoot 5 in 1040 ft
Atigun Pass 14 in 4800 ft
Imnaviat Creek 23 in 3050 ft

Activité sismique

Ville Distance Mag. Time & Date
No recent earthquake activity has been reported nearby.
Minimum magnitude displayed is 2.5.

Températures des eaux côtières

Lieu Température
Aucun rapport de station

Stations météo à proximité